N27 weather

Bradford County Airport
Towanda, Pennsylvania, United States

Public forecast

Using degrees Fahrenheit for public forecast. Weather courtesy of forecast.io.

Closest aviation weather report (METAR) to Bradford County Airport

Closest report is Elmira Corning Regional Airport, 32.1 nm (59.4 km) NW. Retrieved 2019/12/11 04:53 UTC (54 minutes ago):

KELM 110453Z AUTO 31003KT 10SM OVC044 M01/M07 A3015 RMK AO2 SLP218 T10111072 400721011

Closest aviation forecast (TAF) to Bradford County Airport

Closest forecast is Elmira Corning Regional Airport, 32.1 nm (59.4 km) NW. Retrieved 2019-12-11 00:33 UTC (5 hours ago):

TAF KELM 102331Z 1100/1124 27010KT P6SM OVC025 TEMPO 1101/1103 4SM -SHSN OVC015 FM111400 24008KT P6SM BKN035 FM112000 26013G21KT P6SM BKN050